This is the latest recevied weather packets stored in our database for station/object 5B4APJ-13. If no packets are shown the sender has not sent any weather packets the latest 10 day(s).
| Time | Temp. | Humidity | Pressure | Rain* | Wind** | Luminosity | Snow |
|---|---|---|---|---|---|---|---|
| 1777898823 | 15.56° C | 54% | 1009.2 hPa | 0 mm | 4.02 m/s, 280° | 261 W/m² | - |
| 1777898524 | 16.11° C | 52% | 1009.1 hPa | 0 mm | 4.47 m/s, 267° | 193 W/m² | - |
| 1777898224 | 15.56° C | 51% | 1009 hPa | 0 mm | 3.58 m/s, 283° | 227 W/m² | - |
| 1777897923 | 15.56° C | 54% | 1009.2 hPa | 0 mm | 2.24 m/s, 334° | 262 W/m² | - |
| 1777897624 | 15.56° C | 53% | 1009.2 hPa | 0 mm | 3.58 m/s, 274° | 168 W/m² | - |
| 1777897324 | 15.56° C | 54% | 1009 hPa | 0 mm | 1.79 m/s, 253° | 160 W/m² | - |
| 1777897024 | 16.11° C | 51% | 1009.1 hPa | 0 mm | 2.68 m/s, 314° | 250 W/m² | - |
| 1777896724 | 16.67° C | 51% | 1009.3 hPa | 0 mm | 6.26 m/s, 275° | 274 W/m² | - |
| 1777896424 | 16.67° C | 52% | 1009.1 hPa | 0 mm | 4.02 m/s, 260° | 512 W/m² | - |
| 1777896125 | 16.11° C | 51% | 1009.1 hPa | 0 mm | 5.81 m/s, 269° | 923 W/m² | - |
| 1777895825 | 15.56° C | 53% | 1008.8 hPa | 0 mm | 4.47 m/s, 294° | 388 W/m² | - |
| 1777895525 | 15.56° C | 53% | 1009.3 hPa | 0 mm | 3.13 m/s, 267° | 250 W/m² | - |
| 1777895225 | 15.56° C | 52% | 1009.1 hPa | 0 mm | 5.36 m/s, 316° | 238 W/m² | - |
| 1777894925 | 15.56° C | 54% | 1009.1 hPa | 0 mm | 3.13 m/s, 283° | 233 W/m² | - |
| 1777894625 | 15.56° C | 54% | 1009.2 hPa | 0 mm | 1.79 m/s, 275° | 226 W/m² | - |
| 1777894325 | 15.56° C | 53% | 1009.3 hPa | 0 mm | 4.47 m/s, 272° | 244 W/m² | - |
| 1777894025 | 16.11° C | 52% | 1009.1 hPa | 0 mm | 8.94 m/s, 262° | 219 W/m² | - |
| 1777893725 | 15.56° C | 55% | 1009.3 hPa | 0 mm | 4.02 m/s, 287° | 766 W/m² | - |
| 1777893425 | 16.11° C | 52% | 1009.1 hPa | 0 mm | 4.02 m/s, 292° | 237 W/m² | - |
| 1777893125 | 16.67° C | 50% | 1009.2 hPa | 0 mm | 4.47 m/s, 294° | 234 W/m² | - |
| 1777892825 | 16.11° C | 52% | 1009.2 hPa | 0 mm | 0.89 m/s, 285° | 257 W/m² | - |
| 1777892525 | 15.56° C | 53% | 1009.4 hPa | 0 mm | 2.24 m/s, 258° | 272 W/m² | - |
| 1777892225 | 15.56° C | 55% | 1009.2 hPa | 0 mm | 1.79 m/s, 262° | 204 W/m² | - |
| 1777891926 | 15.56° C | 54% | 1009.2 hPa | 0 mm | 1.79 m/s, 275° | 185 W/m² | - |
| 1777891626 | 15.56° C | 56% | 1009.3 hPa | 0 mm | 0.89 m/s, 306° | 140 W/m² | - |
* Rain latest hour (hover to see other rain measurements)
** Current wind speed in m/s (hover to see current wind gust speed)